sensor_id;sensor_type;location;lat;lon;timestamp;pressure;altitude;pressure_sealevel;temperature
74485;BMP280;62942;52.462;10.846;2023-05-29T00:00:17;101310;;;
74485;BMP280;62942;52.462;10.846;2023-05-29T00:01:27;101300;;;
74485;BMP280;62942;52.462;10.846;2023-05-29T00:02:37;101300;;;
74485;BMP280;62942;52.462;10.846;2023-05-29T00:03:37;101300;;;
74485;BMP280;62942;52.462;10.846;2023-05-29T00:04:47;101300;;;
74485;BMP280;62942;52.462;10.846;2023-05-29T00:05:47;101300;;;
74485;BMP280;62942;52.462;10.846;2023-05-29T00:06:57;101300;;;
74485;BMP280;62942;52.462;10.846;2023-05-29T00:08:07;101310;;;
74485;BMP280;62942;52.462;10.846;2023-05-29T00:09:17;101300;;;
74485;BMP280;62942;52.462;10.846;2023-05-29T00:10:27;101310;;;
74485;BMP280;62942;52.462;10.846;2023-05-29T00:11:27;101310;;;
74485;BMP280;62942;52.462;10.846;2023-05-29T00:12:37;101310;;;
74485;BMP280;62942;52.462;10.846;2023-05-29T00:13:47;101310;;;
74485;BMP280;62942;52.462;10.846;2023-05-29T00:14:47;101310;;;
74485;BMP280;62942;52.462;10.846;2023-05-29T00:15:57;101320;;;
74485;BMP280;62942;52.462;10.846;2023-05-29T00:17:07;101310;;;
74485;BMP280;62942;52.462;10.846;2023-05-29T00:18:17;101310;;;
74485;BMP280;62942;52.462;10.846;2023-05-29T00:19:17;101300;;;
74485;BMP280;62942;52.462;10.846;2023-05-29T00:20:27;101300;;;
74485;BMP280;62942;52.462;10.846;2023-05-29T00:21:37;101300;;;
74485;BMP280;62942;52.462;10.846;2023-05-29T00:22:47;101310;;;
74485;BMP280;62942;52.462;10.846;2023-05-29T00:23:57;101310;;;
74485;BMP280;62942;52.462;10.846;2023-05-29T00:24:57;101320;;;
74485;BMP280;62942;52.462;10.846;2023-05-29T00:26:07;101320;;;
74485;BMP280;62942;52.462;10.846;2023-05-29T00:27:17;101320;;;
74485;BMP280;62942;52.462;10.846;2023-05-29T00:28:27;101330;;;
74485;BMP280;62942;52.462;10.846;2023-05-29T00:29:27;101330;;;
74485;BMP280;62942;52.462;10.846;2023-05-29T00:30:37;101330;;;
74485;BMP280;62942;52.462;10.846;2023-05-29T00:31:47;101330;;;
74485;BMP280;62942;52.462;10.846;2023-05-29T00:32:57;101330;;;
74485;BMP280;62942;52.462;10.846;2023-05-29T00:34:07;101340;;;
74485;BMP280;62942;52.462;10.846;2023-05-29T00:35:17;101330;;;
74485;BMP280;62942;52.462;10.846;2023-05-29T00:36:17;101330;;;
74485;BMP280;62942;52.462;10.846;2023-05-29T00:37:27;101330;;;
74485;BMP280;62942;52.462;10.846;2023-05-29T00:38:27;101340;;;
74485;BMP280;62942;52.462;10.846;2023-05-29T00:39:37;101340;;;
74485;BMP280;62942;52.462;10.846;2023-05-29T00:40:37;101340;;;
74485;BMP280;62942;52.462;10.846;2023-05-29T00:41:47;101340;;;
74485;BMP280;62942;52.462;10.846;2023-05-29T00:42:57;101340;;;
74485;BMP280;62942;52.462;10.846;2023-05-29T00:43:57;101340;;;
74485;BMP280;62942;52.462;10.846;2023-05-29T00:45:07;101340;;;
74485;BMP280;62942;52.462;10.846;2023-05-29T00:46:17;101340;;;
74485;BMP280;62942;52.462;10.846;2023-05-29T00:47:27;101340;;;
74485;BMP280;62942;52.462;10.846;2023-05-29T00:48:37;101350;;;
74485;BMP280;62942;52.462;10.846;2023-05-29T00:49:47;101340;;;
74485;BMP280;62942;52.462;10.846;2023-05-29T00:50:57;101340;;;
74485;BMP280;62942;52.462;10.846;2023-05-29T00:51:57;101340;;;
74485;BMP280;62942;52.462;10.846;2023-05-29T00:53:07;101340;;;
74485;BMP280;62942;52.462;10.846;2023-05-29T00:54:17;101350;;;
74485;BMP280;62942;52.462;10.846;2023-05-29T00:55:27;101350;;;
74485;BMP280;62942;52.462;10.846;2023-05-29T00:56:38;101340;;;
74485;BMP280;62942;52.462;10.846;2023-05-29T00:57:47;101350;;;
74485;BMP280;62942;52.462;10.846;2023-05-29T00:58:57;101350;;;
74485;BMP280;62942;52.462;10.846;2023-05-29T01:00:07;101350;;;
74485;BMP280;62942;52.462;10.846;2023-05-29T01:01:17;101340;;;
74485;BMP280;62942;52.462;10.846;2023-05-29T01:02:27;101340;;;
74485;BMP280;62942;52.462;10.846;2023-05-29T01:03:36;101340;;;
74485;BMP280;62942;52.462;10.846;2023-05-29T01:04:47;101330;;;
74485;BMP280;62942;52.462;10.846;2023-05-29T01:05:57;101330;;;
74485;BMP280;62942;52.462;10.846;2023-05-29T01:06:57;101340;;;
74485;BMP280;62942;52.462;10.846;2023-05-29T01:08:07;101340;;;
74485;BMP280;62942;52.462;10.846;2023-05-29T01:09:07;101340;;;
74485;BMP280;62942;52.462;10.846;2023-05-29T01:10:17;101340;;;
74485;BMP280;62942;52.462;10.846;2023-05-29T01:11:28;101340;;;
74485;BMP280;62942;52.462;10.846;2023-05-29T01:12:38;101340;;;
74485;BMP280;62942;52.462;10.846;2023-05-29T01:13:47;101340;;;
74485;BMP280;62942;52.462;10.846;2023-05-29T01:15:01;101350;;;
74485;BMP280;62942;52.462;10.846;2023-05-29T01:16:08;101350;;;
74485;BMP280;62942;52.462;10.846;2023-05-29T01:17:17;101350;;;
74485;BMP280;62942;52.462;10.846;2023-05-29T01:18:30;101350;;;
74485;BMP280;62942;52.462;10.846;2023-05-29T01:19:45;101350;;;
74485;BMP280;62942;52.462;10.846;2023-05-29T01:20:38;101350;;;
74485;BMP280;62942;52.462;10.846;2023-05-29T01:22:54;101350;;;
74485;BMP280;62942;52.462;10.846;2023-05-29T01:23:51;101360;;;
74485;BMP280;62942;52.462;10.846;2023-05-29T01:24:48;101360;;;
74485;BMP280;62942;52.462;10.846;2023-05-29T01:25:58;101360;;;
74485;BMP280;62942;52.462;10.846;2023-05-29T01:27:07;101360;;;
74485;BMP280;62942;52.462;10.846;2023-05-29T01:28:17;101360;;;
74485;BMP280;62942;52.462;10.846;2023-05-29T01:29:17;101370;;;
74485;BMP280;62942;52.462;10.846;2023-05-29T01:30:16;101360;;;
74485;BMP280;62942;52.462;10.846;2023-05-29T01:31:25;101370;;;
74485;BMP280;62942;52.462;10.846;2023-05-29T01:32:26;101360;;;
74485;BMP280;62942;52.462;10.846;2023-05-29T01:33:38;101360;;;
74485;BMP280;62942;52.462;10.846;2023-05-29T01:34:36;101370;;;
74485;BMP280;62942;52.462;10.846;2023-05-29T01:35:46;101370;;;
74485;BMP280;62942;52.462;10.846;2023-05-29T01:36:56;101370;;;
74485;BMP280;62942;52.462;10.846;2023-05-29T01:37:57;101370;;;
74485;BMP280;62942;52.462;10.846;2023-05-29T01:39:07;101370;;;
74485;BMP280;62942;52.462;10.846;2023-05-29T01:40:07;101370;;;
74485;BMP280;62942;52.462;10.846;2023-05-29T01:41:17;101370;;;
74485;BMP280;62942;52.462;10.846;2023-05-29T01:42:27;101380;;;
74485;BMP280;62942;52.462;10.846;2023-05-29T01:43:37;101380;;;
74485;BMP280;62942;52.462;10.846;2023-05-29T01:44:46;101380;;;
74485;BMP280;62942;52.462;10.846;2023-05-29T01:45:56;101380;;;
74485;BMP280;62942;52.462;10.846;2023-05-29T01:47:07;101380;;;
74485;BMP280;62942;52.462;10.846;2023-05-29T01:48:17;101390;;;
74485;BMP280;62942;52.462;10.846;2023-05-29T01:49:16;101390;;;
74485;BMP280;62942;52.462;10.846;2023-05-29T01:50:26;101390;;;
74485;BMP280;62942;52.462;10.846;2023-05-29T01:51:37;101390;;;
74485;BMP280;62942;52.462;10.846;2023-05-29T01:52:46;101390;;;
74485;BMP280;62942;52.462;10.846;2023-05-29T01:53:57;101390;;;
74485;BMP280;62942;52.462;10.846;2023-05-29T01:55:07;101390;;;
74485;BMP280;62942;52.462;10.846;2023-05-29T01:56:16;101390;;;
74485;BMP280;62942;52.462;10.846;2023-05-29T01:57:16;101390;;;
74485;BMP280;62942;52.462;10.846;2023-05-29T01:58:26;101390;;;
74485;BMP280;62942;52.462;10.846;2023-05-29T01:59:36;101400;;;
74485;BMP280;62942;52.462;10.846;2023-05-29T02:00:47;101400;;;
74485;BMP280;62942;52.462;10.846;2023-05-29T02:01:56;101400;;;
74485;BMP280;62942;52.462;10.846;2023-05-29T02:03:06;101400;;;
74485;BMP280;62942;52.462;10.846;2023-05-29T02:04:07;101410;;;
74485;BMP280;62942;52.462;10.846;2023-05-29T02:05:16;101410;;;
74485;BMP280;62942;52.462;10.846;2023-05-29T02:06:26;101400;;;
74485;BMP280;62942;52.462;10.846;2023-05-29T02:07:36;101400;;;
74485;BMP280;62942;52.462;10.846;2023-05-29T02:08:36;101400;;;
74485;BMP280;62942;52.462;10.846;2023-05-29T02:09:46;101410;;;
74485;BMP280;62942;52.462;10.846;2023-05-29T02:10:46;101410;;;
74485;BMP280;62942;52.462;10.846;2023-05-29T02:11:56;101410;;;
74485;BMP280;62942;52.462;10.846;2023-05-29T02:12:56;101400;;;
74485;BMP280;62942;52.462;10.846;2023-05-29T02:14:06;101400;;;
74485;BMP280;62942;52.462;10.846;2023-05-29T02:15:07;101410;;;
74485;BMP280;62942;52.462;10.846;2023-05-29T02:16:16;101410;;;
74485;BMP280;62942;52.462;10.846;2023-05-29T02:17:16;101420;;;
74485;BMP280;62942;52.462;10.846;2023-05-29T02:18:26;101420;;;
74485;BMP280;62942;52.462;10.846;2023-05-29T02:19:36;101420;;;
74485;BMP280;62942;52.462;10.846;2023-05-29T02:20:46;101420;;;
74485;BMP280;62942;52.462;10.846;2023-05-29T02:21:56;101430;;;
74485;BMP280;62942;52.462;10.846;2023-05-29T02:23:07;101430;;;
74485;BMP280;62942;52.462;10.846;2023-05-29T02:24:16;101430;;;
74485;BMP280;62942;52.462;10.846;2023-05-29T02:25:16;101430;;;
74485;BMP280;62942;52.462;10.846;2023-05-29T02:26:26;101430;;;
74485;BMP280;62942;52.462;10.846;2023-05-29T02:27:36;101430;;;
74485;BMP280;62942;52.462;10.846;2023-05-29T02:28:36;101430;;;
74485;BMP280;62942;52.462;10.846;2023-05-29T02:29:36;101430;;;
74485;BMP280;62942;52.462;10.846;2023-05-29T02:30:46;101430;;;
74485;BMP280;62942;52.462;10.846;2023-05-29T02:31:56;101430;;;
74485;BMP280;62942;52.462;10.846;2023-05-29T02:32:57;101440;;;
74485;BMP280;62942;52.462;10.846;2023-05-29T02:34:06;101440;;;
74485;BMP280;62942;52.462;10.846;2023-05-29T02:35:07;101440;;;
74485;BMP280;62942;52.462;10.846;2023-05-29T02:36:16;101430;;;
74485;BMP280;62942;52.462;10.846;2023-05-29T02:37:26;101430;;;
74485;BMP280;62942;52.462;10.846;2023-05-29T02:38:26;101430;;;
74485;BMP280;62942;52.462;10.846;2023-05-29T02:39:26;101430;;;
74485;BMP280;62942;52.462;10.846;2023-05-29T02:40:36;101430;;;
74485;BMP280;62942;52.462;10.846;2023-05-29T02:41:36;101420;;;
74485;BMP280;62942;52.462;10.846;2023-05-29T02:42:47;101430;;;
74485;BMP280;62942;52.462;10.846;2023-05-29T02:43:56;101410;;;
74485;BMP280;62942;52.462;10.846;2023-05-29T02:45:07;101410;;;
74485;BMP280;62942;52.462;10.846;2023-05-29T02:46:16;101410;;;
74485;BMP280;62942;52.462;10.846;2023-05-29T02:47:26;101410;;;
74485;BMP280;62942;52.462;10.846;2023-05-29T02:48:26;101410;;;
74485;BMP280;62942;52.462;10.846;2023-05-29T02:49:36;101410;;;
74485;BMP280;62942;52.462;10.846;2023-05-29T02:50:36;101410;;;
74485;BMP280;62942;52.462;10.846;2023-05-29T02:51:46;101410;;;
74485;BMP280;62942;52.462;10.846;2023-05-29T02:52:56;101410;;;
74485;BMP280;62942;52.462;10.846;2023-05-29T02:54:06;101420;;;
74485;BMP280;62942;52.462;10.846;2023-05-29T02:55:16;101420;;;
74485;BMP280;62942;52.462;10.846;2023-05-29T02:56:16;101420;;;
74485;BMP280;62942;52.462;10.846;2023-05-29T02:57:26;101420;;;
74485;BMP280;62942;52.462;10.846;2023-05-29T02:58:26;101420;;;
74485;BMP280;62942;52.462;10.846;2023-05-29T02:59:26;101430;;;
74485;BMP280;62942;52.462;10.846;2023-05-29T03:00:37;101440;;;
74485;BMP280;62942;52.462;10.846;2023-05-29T03:01:36;101440;;;
74485;BMP280;62942;52.462;10.846;2023-05-29T03:02:46;101440;;;
74485;BMP280;62942;52.462;10.846;2023-05-29T03:03:56;101440;;;
74485;BMP280;62942;52.462;10.846;2023-05-29T03:05:06;101440;;;
74485;BMP280;62942;52.462;10.846;2023-05-29T03:06:06;101430;;;
74485;BMP280;62942;52.462;10.846;2023-05-29T03:07:16;101430;;;
74485;BMP280;62942;52.462;10.846;2023-05-29T03:08:16;101430;;;
74485;BMP280;62942;52.462;10.846;2023-05-29T03:09:26;101430;;;
74485;BMP280;62942;52.462;10.846;2023-05-29T03:10:26;101430;;;
74485;BMP280;62942;52.462;10.846;2023-05-29T03:11:36;101430;;;
74485;BMP280;62942;52.462;10.846;2023-05-29T03:12:37;101430;;;
74485;BMP280;62942;52.462;10.846;2023-05-29T03:13:46;101430;;;
74485;BMP280;62942;52.462;10.846;2023-05-29T03:14:46;101430;;;
74485;BMP280;62942;52.462;10.846;2023-05-29T03:15:46;101430;;;
74485;BMP280;62942;52.462;10.846;2023-05-29T03:16:56;101430;;;
74485;BMP280;62942;52.462;10.846;2023-05-29T03:17:56;101430;;;
74485;BMP280;62942;52.462;10.846;2023-05-29T03:19:06;101430;;;
74485;BMP280;62942;52.462;10.846;2023-05-29T03:20:16;101430;;;
74485;BMP280;62942;52.462;10.846;2023-05-29T03:21:17;101440;;;
74485;BMP280;62942;52.462;10.846;2023-05-29T03:22:16;101430;;;
74485;BMP280;62942;52.462;10.846;2023-05-29T03:23:16;101440;;;
74485;BMP280;62942;52.462;10.846;2023-05-29T03:24:26;101440;;;
74485;BMP280;62942;52.462;10.846;2023-05-29T03:25:36;101440;;;
74485;BMP280;62942;52.462;10.846;2023-05-29T03:26:46;101440;;;
74485;BMP280;62942;52.462;10.846;2023-05-29T03:27:56;101440;;;
74485;BMP280;62942;52.462;10.846;2023-05-29T03:28:56;101430;;;
74485;BMP280;62942;52.462;10.846;2023-05-29T03:30:07;101440;;;
74485;BMP280;62942;52.462;10.846;2023-05-29T03:31:06;101440;;;
74485;BMP280;62942;52.462;10.846;2023-05-29T03:32:07;101440;;;
74485;BMP280;62942;52.462;10.846;2023-05-29T03:33:16;101440;;;
74485;BMP280;62942;52.462;10.846;2023-05-29T03:34:16;101440;;;
74485;BMP280;62942;52.462;10.846;2023-05-29T03:35:26;101440;;;
74485;BMP280;62942;52.462;10.846;2023-05-29T03:36:26;101440;;;
74485;BMP280;62942;52.462;10.846;2023-05-29T03:37:26;101440;;;
74485;BMP280;62942;52.462;10.846;2023-05-29T03:38:26;101440;;;
74485;BMP280;62942;52.462;10.846;2023-05-29T03:39:36;101440;;;
74485;BMP280;62942;52.462;10.846;2023-05-29T03:40:46;101440;;;
74485;BMP280;62942;52.462;10.846;2023-05-29T03:41:46;101440;;;
74485;BMP280;62942;52.462;10.846;2023-05-29T03:42:56;101440;;;
74485;BMP280;62942;52.462;10.846;2023-05-29T03:44:06;101440;;;
74485;BMP280;62942;52.462;10.846;2023-05-29T03:45:16;101440;;;
74485;BMP280;62942;52.462;10.846;2023-05-29T03:46:16;101450;;;
74485;BMP280;62942;52.462;10.846;2023-05-29T03:47:26;101440;;;
74485;BMP280;62942;52.462;10.846;2023-05-29T03:48:36;101450;;;
74485;BMP280;62942;52.462;10.846;2023-05-29T03:49:46;101450;;;
74485;BMP280;62942;52.462;10.846;2023-05-29T03:50:46;101450;;;
74485;BMP280;62942;52.462;10.846;2023-05-29T03:51:56;101450;;;
74485;BMP280;62942;52.462;10.846;2023-05-29T03:53:06;101440;;;
74485;BMP280;62942;52.462;10.846;2023-05-29T03:54:06;101450;;;
74485;BMP280;62942;52.462;10.846;2023-05-29T03:55:16;101440;;;
74485;BMP280;62942;52.462;10.846;2023-05-29T03:56:26;101450;;;
74485;BMP280;62942;52.462;10.846;2023-05-29T03:57:26;101450;;;
74485;BMP280;62942;52.462;10.846;2023-05-29T03:58:36;101450;;;
74485;BMP280;62942;52.462;10.846;2023-05-29T03:59:46;101450;;;
74485;BMP280;62942;52.462;10.846;2023-05-29T04:00:46;101450;;;
74485;BMP280;62942;52.462;10.846;2023-05-29T04:01:46;101460;;;
74485;BMP280;62942;52.462;10.846;2023-05-29T04:02:46;101460;;;
74485;BMP280;62942;52.462;10.846;2023-05-29T04:03:56;101460;;;
74485;BMP280;62942;52.462;10.846;2023-05-29T04:05:06;101460;;;
74485;BMP280;62942;52.462;10.846;2023-05-29T04:06:16;101460;;;
74485;BMP280;62942;52.462;10.846;2023-05-29T04:07:26;101460;;;
74485;BMP280;62942;52.462;10.846;2023-05-29T04:08:36;101460;;;
74485;BMP280;62942;52.462;10.846;2023-05-29T04:09:46;101460;;;
74485;BMP280;62942;52.462;10.846;2023-05-29T04:10:46;101460;;;
74485;BMP280;62942;52.462;10.846;2023-05-29T04:11:56;101460;;;
74485;BMP280;62942;52.462;10.846;2023-05-29T04:12:56;101450;;;
74485;BMP280;62942;52.462;10.846;2023-05-29T04:14:06;101460;;;
74485;BMP280;62942;52.462;10.846;2023-05-29T04:15:07;101460;;;
74485;BMP280;62942;52.462;10.846;2023-05-29T04:16:07;101460;;;
74485;BMP280;62942;52.462;10.846;2023-05-29T04:17:16;101460;;;
74485;BMP280;62942;52.462;10.846;2023-05-29T04:18:26;101470;;;
74485;BMP280;62942;52.462;10.846;2023-05-29T04:19:36;101470;;;
74485;BMP280;62942;52.462;10.846;2023-05-29T04:20:36;101470;;;
74485;BMP280;62942;52.462;10.846;2023-05-29T04:21:36;101470;;;
74485;BMP280;62942;52.462;10.846;2023-05-29T04:22:46;101470;;;
74485;BMP280;62942;52.462;10.846;2023-05-29T04:23:46;101460;;;
74485;BMP280;62942;52.462;10.846;2023-05-29T04:24:56;101460;;;
74485;BMP280;62942;52.462;10.846;2023-05-29T04:25:56;101470;;;
74485;BMP280;62942;52.462;10.846;2023-05-29T04:27:06;101470;;;
74485;BMP280;62942;52.462;10.846;2023-05-29T04:28:06;101460;;;
74485;BMP280;62942;52.462;10.846;2023-05-29T04:29:16;101470;;;
74485;BMP280;62942;52.462;10.846;2023-05-29T04:30:26;101470;;;
74485;BMP280;62942;52.462;10.846;2023-05-29T04:31:36;101460;;;
74485;BMP280;62942;52.462;10.846;2023-05-29T04:32:36;101460;;;
74485;BMP280;62942;52.462;10.846;2023-05-29T04:33:46;101460;;;
74485;BMP280;62942;52.462;10.846;2023-05-29T04:34:46;101460;;;
74485;BMP280;62942;52.462;10.846;2023-05-29T04:35:56;101460;;;
74485;BMP280;62942;52.462;10.846;2023-05-29T04:37:06;101470;;;
74485;BMP280;62942;52.462;10.846;2023-05-29T04:38:16;101460;;;
74485;BMP280;62942;52.462;10.846;2023-05-29T04:39:26;101460;;;
74485;BMP280;62942;52.462;10.846;2023-05-29T04:40:26;101470;;;
74485;BMP280;62942;52.462;10.846;2023-05-29T04:41:36;101470;;;
74485;BMP280;62942;52.462;10.846;2023-05-29T04:42:36;101470;;;
74485;BMP280;62942;52.462;10.846;2023-05-29T04:43:46;101480;;;
74485;BMP280;62942;52.462;10.846;2023-05-29T04:44:56;101480;;;
74485;BMP280;62942;52.462;10.846;2023-05-29T04:45:56;101480;;;
74485;BMP280;62942;52.462;10.846;2023-05-29T04:47:06;101480;;;
74485;BMP280;62942;52.462;10.846;2023-05-29T04:48:06;101480;;;
74485;BMP280;62942;52.462;10.846;2023-05-29T04:49:16;101480;;;
74485;BMP280;62942;52.462;10.846;2023-05-29T04:50:26;101480;;;
74485;BMP280;62942;52.462;10.846;2023-05-29T04:51:26;101480;;;
74485;BMP280;62942;52.462;10.846;2023-05-29T04:52:36;101480;;;
74485;BMP280;62942;52.462;10.846;2023-05-29T04:53:46;101480;;;
74485;BMP280;62942;52.462;10.846;2023-05-29T04:54:46;101480;;;
74485;BMP280;62942;52.462;10.846;2023-05-29T04:55:56;101470;;;
74485;BMP280;62942;52.462;10.846;2023-05-29T04:57:06;101480;;;
74485;BMP280;62942;52.462;10.846;2023-05-29T04:58:16;101470;;;
74485;BMP280;62942;52.462;10.846;2023-05-29T04:59:16;101470;;;
74485;BMP280;62942;52.462;10.846;2023-05-29T05:00:26;101470;;;
74485;BMP280;62942;52.462;10.846;2023-05-29T05:01:36;101480;;;
74485;BMP280;62942;52.462;10.846;2023-05-29T05:02:47;101480;;;
74485;BMP280;62942;52.462;10.846;2023-05-29T05:03:56;101470;;;
74485;BMP280;62942;52.462;10.846;2023-05-29T05:04:56;101480;;;
74485;BMP280;62942;52.462;10.846;2023-05-29T05:06:06;101470;;;
74485;BMP280;62942;52.462;10.846;2023-05-29T05:07:06;101470;;;
74485;BMP280;62942;52.462;10.846;2023-05-29T05:08:16;101470;;;
74485;BMP280;62942;52.462;10.846;2023-05-29T05:09:26;101470;;;
74485;BMP280;62942;52.462;10.846;2023-05-29T05:10:26;101470;;;
74485;BMP280;62942;52.462;10.846;2023-05-29T05:11:36;101470;;;
74485;BMP280;62942;52.462;10.846;2023-05-29T05:12:36;101480;;;
74485;BMP280;62942;52.462;10.846;2023-05-29T05:13:46;101470;;;
74485;BMP280;62942;52.462;10.846;2023-05-29T05:14:46;101480;;;
74485;BMP280;62942;52.462;10.846;2023-05-29T05:15:46;101480;;;
74485;BMP280;62942;52.462;10.846;2023-05-29T05:16:56;101480;;;
74485;BMP280;62942;52.462;10.846;2023-05-29T05:18:06;101470;;;
74485;BMP280;62942;52.462;10.846;2023-05-29T05:19:16;101480;;;
74485;BMP280;62942;52.462;10.846;2023-05-29T05:20:26;101470;;;
74485;BMP280;62942;52.462;10.846;2023-05-29T05:21:36;101460;;;
74485;BMP280;62942;52.462;10.846;2023-05-29T05:22:36;101470;;;
74485;BMP280;62942;52.462;10.846;2023-05-29T05:23:46;101470;;;
74485;BMP280;62942;52.462;10.846;2023-05-29T05:24:46;101470;;;
74485;BMP280;62942;52.462;10.846;2023-05-29T05:25:56;101480;;;
74485;BMP280;62942;52.462;10.846;2023-05-29T05:26:56;101480;;;
74485;BMP280;62942;52.462;10.846;2023-05-29T05:28:07;101480;;;
74485;BMP280;62942;52.462;10.846;2023-05-29T05:29:06;101480;;;
74485;BMP280;62942;52.462;10.846;2023-05-29T05:30:16;101480;;;
74485;BMP280;62942;52.462;10.846;2023-05-29T05:31:26;101460;;;
74485;BMP280;62942;52.462;10.846;2023-05-29T05:32:36;101470;;;
74485;BMP280;62942;52.462;10.846;2023-05-29T05:33:46;101470;;;
74485;BMP280;62942;52.462;10.846;2023-05-29T05:34:46;101470;;;
74485;BMP280;62942;52.462;10.846;2023-05-29T05:35:56;101470;;;
74485;BMP280;62942;52.462;10.846;2023-05-29T05:37:06;101460;;;
74485;BMP280;62942;52.462;10.846;2023-05-29T05:38:06;101460;;;
74485;BMP280;62942;52.462;10.846;2023-05-29T05:39:16;101460;;;
74485;BMP280;62942;52.462;10.846;2023-05-29T05:40:26;101460;;;
74485;BMP280;62942;52.462;10.846;2023-05-29T05:41:36;101460;;;
74485;BMP280;62942;52.462;10.846;2023-05-29T05:42:46;101460;;;
74485;BMP280;62942;52.462;10.846;2023-05-29T05:43:56;101470;;;
74485;BMP280;62942;52.462;10.846;2023-05-29T05:44:56;101470;;;
74485;BMP280;62942;52.462;10.846;2023-05-29T05:45:56;101460;;;
74485;BMP280;62942;52.462;10.846;2023-05-29T05:46:56;101470;;;
74485;BMP280;62942;52.462;10.846;2023-05-29T05:48:06;101470;;;
74485;BMP280;62942;52.462;10.846;2023-05-29T05:49:16;101470;;;
74485;BMP280;62942;52.462;10.846;2023-05-29T05:50:26;101480;;;
74485;BMP280;62942;52.462;10.846;2023-05-29T05:51:26;101480;;;
74485;BMP280;62942;52.462;10.846;2023-05-29T05:52:36;101490;;;
74485;BMP280;62942;52.462;10.846;2023-05-29T05:53:46;101490;;;
74485;BMP280;62942;52.462;10.846;2023-05-29T05:54:46;101490;;;
74485;BMP280;62942;52.462;10.846;2023-05-29T05:55:46;101490;;;
74485;BMP280;62942;52.462;10.846;2023-05-29T05:56:56;101500;;;
74485;BMP280;62942;52.462;10.846;2023-05-29T05:58:06;101480;;;
74485;BMP280;62942;52.462;10.846;2023-05-29T05:59:06;101490;;;
74485;BMP280;62942;52.462;10.846;2023-05-29T06:00:06;101490;;;
74485;BMP280;62942;52.462;10.846;2023-05-29T06:01:06;101490;;;
74485;BMP280;62942;52.462;10.846;2023-05-29T06:02:16;101490;;;
74485;BMP280;62942;52.462;10.846;2023-05-29T06:03:16;101480;;;
74485;BMP280;62942;52.462;10.846;2023-05-29T06:04:16;101480;;;
74485;BMP280;62942;52.462;10.846;2023-05-29T06:05:26;101480;;;
74485;BMP280;62942;52.462;10.846;2023-05-29T06:06:26;101470;;;
74485;BMP280;62942;52.462;10.846;2023-05-29T06:07:36;101470;;;
74485;BMP280;62942;52.462;10.846;2023-05-29T06:08:36;101490;;;
74485;BMP280;62942;52.462;10.846;2023-05-29T06:09:46;101490;;;
74485;BMP280;62942;52.462;10.846;2023-05-29T06:10:56;101490;;;
74485;BMP280;62942;52.462;10.846;2023-05-29T06:12:06;101490;;;
74485;BMP280;62942;52.462;10.846;2023-05-29T06:13:06;101490;;;
74485;BMP280;62942;52.462;10.846;2023-05-29T06:14:16;101490;;;
74485;BMP280;62942;52.462;10.846;2023-05-29T06:15:16;101490;;;
74485;BMP280;62942;52.462;10.846;2023-05-29T06:16:26;101490;;;
74485;BMP280;62942;52.462;10.846;2023-05-29T06:17:36;101500;;;
74485;BMP280;62942;52.462;10.846;2023-05-29T06:18:46;101500;;;
74485;BMP280;62942;52.462;10.846;2023-05-29T06:19:46;101500;;;
74485;BMP280;62942;52.462;10.846;2023-05-29T06:20:46;101500;;;
74485;BMP280;62942;52.462;10.846;2023-05-29T06:21:56;101500;;;
74485;BMP280;62942;52.462;10.846;2023-05-29T06:22:56;101500;;;
74485;BMP280;62942;52.462;10.846;2023-05-29T06:24:06;101500;;;
74485;BMP280;62942;52.462;10.846;2023-05-29T06:25:16;101500;;;
74485;BMP280;62942;52.462;10.846;2023-05-29T06:26:26;101500;;;
74485;BMP280;62942;52.462;10.846;2023-05-29T06:27:36;101490;;;
74485;BMP280;62942;52.462;10.846;2023-05-29T06:28:36;101500;;;
74485;BMP280;62942;52.462;10.846;2023-05-29T06:29:46;101510;;;
74485;BMP280;62942;52.462;10.846;2023-05-29T06:30:46;101510;;;
74485;BMP280;62942;52.462;10.846;2023-05-29T06:31:56;101510;;;
74485;BMP280;62942;52.462;10.846;2023-05-29T06:32:56;101510;;;
74485;BMP280;62942;52.462;10.846;2023-05-29T06:33:56;101510;;;
74485;BMP280;62942;52.462;10.846;2023-05-29T06:34:56;101510;;;
74485;BMP280;62942;52.462;10.846;2023-05-29T06:36:06;101510;;;
74485;BMP280;62942;52.462;10.846;2023-05-29T06:37:06;101500;;;
74485;BMP280;62942;52.462;10.846;2023-05-29T06:38:16;101500;;;
74485;BMP280;62942;52.462;10.846;2023-05-29T06:39:26;101510;;;
74485;BMP280;62942;52.462;10.846;2023-05-29T06:40:36;101510;;;
74485;BMP280;62942;52.462;10.846;2023-05-29T06:41:46;101510;;;
74485;BMP280;62942;52.462;10.846;2023-05-29T06:42:56;101510;;;
74485;BMP280;62942;52.462;10.846;2023-05-29T06:44:06;101520;;;
74485;BMP280;62942;52.462;10.846;2023-05-29T06:45:16;101520;;;
74485;BMP280;62942;52.462;10.846;2023-05-29T06:46:26;101520;;;
74485;BMP280;62942;52.462;10.846;2023-05-29T06:47:26;101530;;;
74485;BMP280;62942;52.462;10.846;2023-05-29T06:48:26;101530;;;
74485;BMP280;62942;52.462;10.846;2023-05-29T06:49:36;101530;;;
74485;BMP280;62942;52.462;10.846;2023-05-29T06:50:46;101530;;;
74485;BMP280;62942;52.462;10.846;2023-05-29T06:51:46;101540;;;
74485;BMP280;62942;52.462;10.846;2023-05-29T06:52:46;101540;;;
74485;BMP280;62942;52.462;10.846;2023-05-29T06:53:46;101530;;;
74485;BMP280;62942;52.462;10.846;2023-05-29T06:54:56;101540;;;
74485;BMP280;62942;52.462;10.846;2023-05-29T06:55:56;101540;;;
74485;BMP280;62942;52.462;10.846;2023-05-29T06:56:56;101540;;;
74485;BMP280;62942;52.462;10.846;2023-05-29T06:57:56;101540;;;
74485;BMP280;62942;52.462;10.846;2023-05-29T06:59:06;101530;;;
74485;BMP280;62942;52.462;10.846;2023-05-29T07:00:17;101540;;;